Time;durP1;ratioP1;P1;durP2;ratioP2;P2;SDS_P1;SDS_P2;PMS_P1;PMS_P2;Temp;Humidity;BMP_temperature;BMP_pressure;BME280_temperature;BME280_humidity;BME280_pressure;Samples;Min_cycle;Max_cycle;Signal;HPM_P1;HPM_P2
2021/07/04 00:01:35;;;;;;;5.13;4.70;;;;;;;;;;5033385;28;20416;-77
2021/07/04 00:04:02;;;;;;;5.30;4.33;;;;;;;;;;5033374;28;20411;-76
2021/07/04 00:06:28;;;;;;;5.50;5.00;;;;;;;;;;5031725;28;20440;-77
2021/07/04 00:08:54;;;;;;;4.47;4.07;;;;;;;;;;5032187;28;20420;-76
2021/07/04 00:11:20;;;;;;;4.93;4.43;;;;;;;;;;5032012;28;20791;-77
2021/07/04 00:13:46;;;;;;;5.37;4.87;;;;;;;;;;5033348;28;20493;-78
2021/07/04 00:16:12;;;;;;;4.80;4.10;;;;;;;;;;5033200;28;20463;-76
2021/07/04 00:18:38;;;;;;;6.93;4.70;;;;;;;;;;5031776;28;20522;-75
2021/07/04 00:21:07;;;;;;;5.13;4.63;;;;;;;;;;5033258;28;20508;-78
2021/07/04 00:23:34;;;;;;;5.03;4.63;;;;;;;;;;5032895;28;20431;-76
2021/07/04 00:26:04;;;;;;;5.90;4.77;;;;;;;;;;5032921;28;20420;-76
2021/07/04 00:28:30;;;;;;;7.20;5.33;;;;;;;;;;5032724;28;20435;-78
2021/07/04 00:30:56;;;;;;;5.60;5.00;;;;;;;;;;5032463;28;20471;-77
2021/07/04 00:33:22;;;;;;;6.27;5.67;;;;;;;;;;5033018;28;20428;-77
2021/07/04 00:35:48;;;;;;;6.70;6.00;;;;;;;;;;5032588;28;20546;-77
2021/07/04 00:38:14;;;;;;;5.30;4.80;;;;;;;;;;5028740;28;20475;-76
2021/07/04 00:40:42;;;;;;;6.70;5.70;;;;;;;;;;5013186;28;20432;-76
2021/07/04 00:43:08;;;;;;;6.20;5.60;;;;;;;;;;5011857;28;20440;-76
2021/07/04 00:45:34;;;;;;;6.20;5.60;;;;;;;;;;5012914;28;20419;-75
2021/07/04 00:48:00;;;;;;;6.07;5.47;;;;;;;;;;5014133;28;20842;-77
2021/07/04 00:50:28;;;;;;;6.67;5.57;;;;;;;;;;5014542;28;20421;-77
2021/07/04 00:52:55;;;;;;;6.30;5.70;;;;;;;;;;5026053;28;20424;-79
2021/07/04 00:55:21;;;;;;;6.10;5.50;;;;;;;;;;5032217;28;20447;-78
2021/07/04 00:57:47;;;;;;;6.23;5.63;;;;;;;;;;5032226;28;20484;-79
2021/07/04 01:00:18;;;;;;;5.37;4.87;;;;;;;;;;5032415;28;20416;-78
2021/07/04 01:02:44;;;;;;;5.67;5.17;;;;;;;;;;5032018;28;20428;-77
2021/07/04 01:05:11;;;;;;;5.83;5.33;;;;;;;;;;5029957;28;20440;-77
2021/07/04 01:07:37;;;;;;;5.83;5.23;;;;;;;;;;5031977;28;20416;-77
2021/07/04 01:10:04;;;;;;;9.20;5.33;;;;;;;;;;5032825;28;20455;-78
2021/07/04 01:12:30;;;;;;;5.97;5.40;;;;;;;;;;5032768;28;20427;-76
2021/07/04 01:14:57;;;;;;;6.20;5.50;;;;;;;;;;5032990;28;20426;-77
2021/07/04 01:17:23;;;;;;;7.90;6.30;;;;;;;;;;5031115;28;20463;-75
2021/07/04 01:19:49;;;;;;;6.10;5.50;;;;;;;;;;5032714;28;20481;-78
2021/07/04 01:22:16;;;;;;;4.80;4.40;;;;;;;;;;5032420;28;20486;-78
2021/07/04 01:24:42;;;;;;;5.53;5.00;;;;;;;;;;5029094;28;20994;-77
2021/07/04 01:27:08;;;;;;;6.60;5.93;;;;;;;;;;5032741;28;20431;-77
2021/07/04 01:29:34;;;;;;;6.10;5.23;;;;;;;;;;5033149;28;20439;-77
2021/07/04 01:32:03;;;;;;;5.90;5.40;;;;;;;;;;5032877;28;20768;-77
2021/07/04 01:34:29;;;;;;;6.47;5.87;;;;;;;;;;5032639;28;20468;-78
2021/07/04 01:36:58;;;;;;;5.53;4.97;;;;;;;;;;5032763;28;20516;-77
2021/07/04 01:39:24;;;;;;;7.93;5.80;;;;;;;;;;5031692;28;20428;-79
2021/07/04 01:41:50;;;;;;;6.30;5.33;;;;;;;;;;5031161;28;20420;-78
2021/07/04 01:44:16;;;;;;;6.10;5.60;;;;;;;;;;5032350;28;20428;-77
2021/07/04 01:46:42;;;;;;;6.07;5.47;;;;;;;;;;5032430;28;20416;-78
2021/07/04 01:49:08;;;;;;;6.60;5.70;;;;;;;;;;5032007;28;20424;-78
2021/07/04 01:51:34;;;;;;;5.60;5.10;;;;;;;;;;5032126;28;20412;-75
2021/07/04 01:54:00;;;;;;;6.10;5.60;;;;;;;;;;5030166;28;20435;-78
2021/07/04 01:56:26;;;;;;;5.97;5.37;;;;;;;;;;5016638;28;20490;-77
2021/07/04 01:58:52;;;;;;;5.77;5.27;;;;;;;;;;5012374;28;20527;-78
2021/07/04 02:01:18;;;;;;;5.70;5.20;;;;;;;;;;5012429;28;20417;-77
2021/07/04 02:03:44;;;;;;;6.10;5.60;;;;;;;;;;5012133;28;20479;-78
2021/07/04 02:06:10;;;;;;;8.40;5.20;;;;;;;;;;5012512;28;20417;-77
2021/07/04 02:08:36;;;;;;;6.83;6.13;;;;;;;;;;5014686;28;20417;-77
2021/07/04 02:11:02;;;;;;;6.20;5.60;;;;;;;;;;5015931;28;20447;-77
2021/07/04 02:13:28;;;;;;;5.10;4.70;;;;;;;;;;5015522;28;20436;-76
2021/07/04 02:15:54;;;;;;;6.53;5.90;;;;;;;;;;5015950;28;20417;-77
2021/07/04 02:18:20;;;;;;;6.23;5.37;;;;;;;;;;5015516;28;21017;-76
2021/07/04 02:20:54;;;;;;;5.87;5.27;;;;;;;;;;5014291;28;20520;-78
2021/07/04 02:23:21;;;;;;;7.30;5.80;;;;;;;;;;5015150;28;20413;-78
2021/07/04 02:25:48;;;;;;;5.83;5.20;;;;;;;;;;5014433;28;20429;-77
2021/07/04 02:28:16;;;;;;;5.80;5.30;;;;;;;;;;5015450;28;20449;-78
2021/07/04 02:30:42;;;;;;;10.17;5.97;;;;;;;;;;5015643;28;20456;-76
2021/07/04 02:33:09;;;;;;;6.80;5.87;;;;;;;;;;5013559;28;20520;-76
2021/07/04 02:35:38;;;;;;;8.33;5.90;;;;;;;;;;5013805;28;20488;-77
2021/07/04 02:38:05;;;;;;;5.30;4.80;;;;;;;;;;5014612;28;20472;-78
2021/07/04 02:40:31;;;;;;;6.00;5.50;;;;;;;;;;5013720;28;20439;-77
2021/07/04 02:42:57;;;;;;;6.20;5.60;;;;;;;;;;5015016;28;20429;-77
2021/07/04 02:45:24;;;;;;;5.40;4.90;;;;;;;;;;5015481;28;20436;-78
2021/07/04 02:47:50;;;;;;;6.77;5.70;;;;;;;;;;5014943;28;20958;-76
2021/07/04 02:50:21;;;;;;;6.13;5.53;;;;;;;;;;5015156;28;20920;-77
2021/07/04 02:52:47;;;;;;;5.60;5.10;;;;;;;;;;5027057;28;20424;-76
2021/07/04 02:55:13;;;;;;;6.70;6.00;;;;;;;;;;5034439;28;20427;-77
2021/07/04 02:57:39;;;;;;;6.00;5.50;;;;;;;;;;5035094;28;20472;-77
2021/07/04 03:00:10;;;;;;;5.37;4.90;;;;;;;;;;5036150;28;20444;-76
2021/07/04 03:02:36;;;;;;;6.00;5.47;;;;;;;;;;5034530;28;20412;-78
2021/07/04 03:05:02;;;;;;;6.90;6.27;;;;;;;;;;5034520;28;20868;-78
2021/07/04 03:07:28;;;;;;;6.80;6.10;;;;;;;;;;5034212;28;20872;-78
2021/07/04 03:09:54;;;;;;;5.67;5.17;;;;;;;;;;5034266;28;20419;-78
2021/07/04 03:12:20;;;;;;;5.70;5.20;;;;;;;;;;5033140;28;20439;-78
2021/07/04 03:14:49;;;;;;;5.17;4.73;;;;;;;;;;5033023;28;20497;-77
2021/07/04 03:17:15;;;;;;;6.07;5.23;;;;;;;;;;5034088;28;20485;-76
2021/07/04 03:19:41;;;;;;;6.13;5.53;;;;;;;;;;5019036;28;20439;-77
2021/07/04 03:22:10;;;;;;;5.80;5.30;;;;;;;;;;5014668;28;20895;-76
2021/07/04 03:24:39;;;;;;;7.93;5.63;;;;;;;;;;5014015;28;20417;-77
2021/07/04 03:27:05;;;;;;;10.40;5.97;;;;;;;;;;5014498;28;20417;-77
2021/07/04 03:29:31;;;;;;;6.03;5.50;;;;;;;;;;5014373;28;20417;-78
2021/07/04 03:31:57;;;;;;;7.97;5.67;;;;;;;;;;5014226;28;20516;-78
2021/07/04 03:34:24;;;;;;;6.97;5.60;;;;;;;;;;5012845;28;21042;-76
2021/07/04 03:36:50;;;;;;;6.93;6.27;;;;;;;;;;5014328;28;20883;-79
2021/07/04 03:39:16;;;;;;;6.30;5.60;;;;;;;;;;5013274;28;20431;-77
2021/07/04 03:41:42;;;;;;;6.30;5.70;;;;;;;;;;5012834;28;20837;-77
2021/07/04 03:44:08;;;;;;;6.40;5.87;;;;;;;;;;5013822;28;20475;-78
2021/07/04 03:46:34;;;;;;;9.30;6.30;;;;;;;;;;5014092;28;20526;-78
2021/07/04 03:49:01;;;;;;;5.83;5.30;;;;;;;;;;5013789;28;20848;-79
2021/07/04 03:51:27;;;;;;;6.87;6.10;;;;;;;;;;5015513;28;20880;-76
2021/07/04 03:53:52;;;;;;;4.70;4.30;;;;;;;;;;5032949;28;20422;-76
2021/07/04 03:56:20;;;;;;;7.33;5.80;;;;;;;;;;5033745;28;20522;-76
2021/07/04 03:58:45;;;;;;;5.90;5.40;;;;;;;;;;5033532;28;20963;-79
2021/07/04 04:01:18;;;;;;;6.00;5.30;;;;;;;;;;5033434;28;20412;-77
2021/07/04 04:03:44;;;;;;;5.27;4.77;;;;;;;;;;5032018;28;20807;-76
2021/07/04 04:06:10;;;;;;;5.90;5.23;;;;;;;;;;5033530;28;20427;-77
2021/07/04 04:08:36;;;;;;;7.17;5.93;;;;;;;;;;5020728;28;20433;-76
2021/07/04 04:11:04;;;;;;;5.63;4.73;;;;;;;;;;5011878;28;20474;-75
2021/07/04 04:13:30;;;;;;;6.00;5.40;;;;;;;;;;5013316;28;20926;-77
2021/07/04 04:15:56;;;;;;;7.20;5.80;;;;;;;;;;5011915;28;20425;-76
2021/07/04 04:18:22;;;;;;;8.93;5.33;;;;;;;;;;5013659;28;20475;-76
2021/07/04 04:20:48;;;;;;;6.80;6.20;;;;;;;;;;5013687;28;20413;-76
2021/07/04 04:23:14;;;;;;;5.73;5.13;;;;;;;;;;5012899;28;20417;-75
2021/07/04 04:25:40;;;;;;;5.90;5.30;;;;;;;;;;5012990;28;20424;-78
2021/07/04 04:28:08;;;;;;;5.67;5.20;;;;;;;;;;5013496;28;20424;-78
2021/07/04 04:30:34;;;;;;;6.33;5.73;;;;;;;;;;5012541;28;20760;-77
2021/07/04 04:33:02;;;;;;;5.47;4.97;;;;;;;;;;5012208;28;20467;-78
2021/07/04 04:35:28;;;;;;;5.97;5.37;;;;;;;;;;5013150;28;20475;-77
2021/07/04 04:37:54;;;;;;;5.83;5.33;;;;;;;;;;5012663;28;20476;-76
2021/07/04 04:40:21;;;;;;;7.10;6.47;;;;;;;;;;5012373;28;20421;-77
2021/07/04 04:42:47;;;;;;;8.13;5.63;;;;;;;;;;5013155;28;20444;-79
2021/07/04 04:45:13;;;;;;;5.10;4.60;;;;;;;;;;5013307;28;20805;-78
2021/07/04 04:47:39;;;;;;;6.00;5.37;;;;;;;;;;5013154;28;20447;-78
2021/07/04 04:50:05;;;;;;;5.87;4.77;;;;;;;;;;5013285;28;20876;-77
2021/07/04 04:52:34;;;;;;;6.30;5.80;;;;;;;;;;5021435;28;20535;-76
2021/07/04 04:55:00;;;;;;;5.73;5.30;;;;;;;;;;5032678;28;20408;-78
2021/07/04 04:57:26;;;;;;;5.20;4.70;;;;;;;;;;5032949;28;20479;-79
2021/07/04 04:59:52;;;;;;;5.37;4.87;;;;;;;;;;5031265;28;20498;-75
2021/07/04 05:02:18;;;;;;;5.97;5.43;;;;;;;;;;5033071;28;20419;-77
2021/07/04 05:04:44;;;;;;;6.23;5.37;;;;;;;;;;5032842;28;20852;-78
2021/07/04 05:07:10;;;;;;;5.00;4.60;;;;;;;;;;5034073;28;20454;-75
2021/07/04 05:09:36;;;;;;;5.43;5.00;;;;;;;;;;5033303;28;20612;-76
2021/07/04 05:12:02;;;;;;;5.43;4.93;;;;;;;;;;5032453;28;20433;-77
2021/07/04 05:14:28;;;;;;;7.27;4.63;;;;;;;;;;5031235;28;20526;-77
2021/07/04 05:16:54;;;;;;;5.70;4.40;;;;;;;;;;5032803;28;20447;-77
2021/07/04 05:19:20;;;;;;;6.60;5.97;;;;;;;;;;5031206;28;20440;-78
2021/07/04 05:21:46;;;;;;;6.10;5.60;;;;;;;;;;5032684;28;20452;-77
2021/07/04 05:24:12;;;;;;;5.17;4.77;;;;;;;;;;5030308;28;20434;-75
2021/07/04 05:26:38;;;;;;;6.03;5.20;;;;;;;;;;5031302;28;20433;-78
2021/07/04 05:29:04;;;;;;;5.67;5.13;;;;;;;;;;5032937;28;20415;-79
2021/07/04 05:31:31;;;;;;;5.70;5.03;;;;;;;;;;5032482;28;20535;-76
2021/07/04 05:33:57;;;;;;;6.00;5.43;;;;;;;;;;5027369;28;20519;-77
2021/07/04 05:36:24;;;;;;;6.10;5.50;;;;;;;;;;5012796;28;20900;-78
2021/07/04 05:38:50;;;;;;;6.03;4.87;;;;;;;;;;5012218;28;20472;-78
2021/07/04 05:41:16;;;;;;;6.60;5.97;;;;;;;;;;5012763;28;20516;-78
2021/07/04 05:43:44;;;;;;;5.20;4.70;;;;;;;;;;5015942;28;20409;-78
2021/07/04 05:46:10;;;;;;;5.93;5.43;;;;;;;;;;5016828;28;20539;-77
2021/07/04 05:48:37;;;;;;;9.83;5.20;;;;;;;;;;5016216;28;20416;-79
2021/07/04 05:51:03;;;;;;;5.40;4.90;;;;;;;;;;5016222;28;20487;-76
2021/07/04 05:53:32;;;;;;;6.93;5.63;;;;;;;;;;5033710;28;20423;-77
2021/07/04 05:55:58;;;;;;;5.30;4.90;;;;;;;;;;5034798;28;20427;-77
2021/07/04 05:58:24;;;;;;;5.67;5.10;;;;;;;;;;5035866;28;20478;-82
2021/07/04 06:00:51;;;;;;;5.63;4.90;;;;;;;;;;5035649;28;20415;-81
2021/07/04 06:03:17;;;;;;;6.67;5.90;;;;;;;;;;5035473;28;20482;-77
2021/07/04 06:05:43;;;;;;;6.30;5.70;;;;;;;;;;5035546;28;20466;-76
2021/07/04 06:08:09;;;;;;;6.07;5.50;;;;;;;;;;5027307;28;20448;-77
2021/07/04 06:10:36;;;;;;;7.33;5.30;;;;;;;;;;5015444;28;20408;-77
2021/07/04 06:13:02;;;;;;;5.83;5.20;;;;;;;;;;5015432;28;20456;-76
2021/07/04 06:15:28;;;;;;;5.57;5.07;;;;;;;;;;5015934;28;20811;-77
2021/07/04 06:17:54;;;;;;;5.50;5.00;;;;;;;;;;5015643;28;20465;-76
2021/07/04 06:20:23;;;;;;;8.77;5.80;;;;;;;;;;5014181;28;20429;-77
2021/07/04 06:22:50;;;;;;;5.30;4.80;;;;;;;;;;5015047;28;20428;-76
2021/07/04 06:25:17;;;;;;;5.80;5.30;;;;;;;;;;5013952;28;20439;-75
2021/07/04 06:27:43;;;;;;;7.00;6.20;;;;;;;;;;5015326;28;20437;-77
2021/07/04 06:30:10;;;;;;;6.90;5.63;;;;;;;;;;5015413;28;20531;-78
2021/07/04 06:32:36;;;;;;;5.80;5.30;;;;;;;;;;5015379;28;20417;-78
2021/07/04 06:35:03;;;;;;;5.40;4.90;;;;;;;;;;5013903;28;20483;-76
2021/07/04 06:37:29;;;;;;;5.57;4.93;;;;;;;;;;5014799;28;20479;-76
2021/07/04 06:39:55;;;;;;;6.20;5.43;;;;;;;;;;5008139;28;20456;-76
2021/07/04 06:42:21;;;;;;;5.60;5.10;;;;;;;;;;5015010;28;20440;-78
2021/07/04 06:44:47;;;;;;;4.40;4.07;;;;;;;;;;5015113;28;20504;-76
2021/07/04 06:47:13;;;;;;;5.70;5.20;;;;;;;;;;5015256;28;20421;-75
2021/07/04 06:49:39;;;;;;;6.90;5.20;;;;;;;;;;5014985;28;20409;-76
2021/07/04 06:52:05;;;;;;;5.67;5.17;;;;;;;;;;5021757;28;20420;-76
2021/07/04 06:54:31;;;;;;;6.50;5.87;;;;;;;;;;5032750;28;20767;-77
2021/07/04 06:57:25;;;;;;;6.00;4.50;;;;;;;;;;5034350;28;20432;-78
2021/07/04 06:59:43;;;;;;;6.03;5.43;;;;;;;;;;5033977;28;21002;-76
2021/07/04 07:02:09;;;;;;;4.93;4.53;;;;;;;;;;5034586;28;20463;-75
2021/07/04 07:04:35;;;;;;;8.60;5.53;;;;;;;;;;5033584;28;20423;-75
2021/07/04 07:07:01;;;;;;;6.10;5.57;;;;;;;;;;5034166;28;20416;-76
2021/07/04 07:09:27;;;;;;;5.47;4.97;;;;;;;;;;5033723;28;20886;-77
2021/07/04 07:11:53;;;;;;;5.17;4.77;;;;;;;;;;5034442;28;20494;-76
2021/07/04 07:14:21;;;;;;;5.60;5.10;;;;;;;;;;5034358;28;20770;-77
2021/07/04 07:16:47;;;;;;;5.17;4.67;;;;;;;;;;5034726;28;20415;-79
2021/07/04 07:19:13;;;;;;;7.13;5.10;;;;;;;;;;5028781;28;20467;-75
2021/07/04 07:21:40;;;;;;;5.60;5.10;;;;;;;;;;5035186;28;20771;-77
2021/07/04 07:24:06;;;;;;;4.90;4.50;;;;;;;;;;5033647;28;20420;-76
2021/07/04 07:26:32;;;;;;;5.20;4.80;;;;;;;;;;5034083;28;20416;-77
2021/07/04 07:28:58;;;;;;;8.83;5.73;;;;;;;;;;5034019;28;20416;-75
2021/07/04 07:31:24;;;;;;;5.43;4.43;;;;;;;;;;5033920;28;20466;-75
2021/07/04 07:33:50;;;;;;;5.20;4.77;;;;;;;;;;5029669;28;20443;-77
2021/07/04 07:36:16;;;;;;;6.20;5.23;;;;;;;;;;5008385;28;21103;-78
2021/07/04 07:38:42;;;;;;;5.47;5.07;;;;;;;;;;5013347;28;20500;-76
2021/07/04 07:41:08;;;;;;;5.07;4.60;;;;;;;;;;5013716;28;20427;-76
2021/07/04 07:43:34;;;;;;;5.63;5.03;;;;;;;;;;5029407;28;20431;-75
2021/07/04 07:46:00;;;;;;;4.77;4.47;;;;;;;;;;5033532;28;20453;-76
2021/07/04 07:48:26;;;;;;;5.47;5.07;;;;;;;;;;5033713;28;20424;-75
2021/07/04 07:50:55;;;;;;;4.50;4.10;;;;;;;;;;5034238;28;20431;-77
2021/07/04 07:53:21;;;;;;;5.70;5.03;;;;;;;;;;5032308;28;20423;-75
2021/07/04 07:55:49;;;;;;;5.63;4.90;;;;;;;;;;5033485;28;20412;-78
2021/07/04 07:58:15;;;;;;;4.83;4.33;;;;;;;;;;5033320;28;20773;-75
2021/07/04 08:00:41;;;;;;;6.47;5.23;;;;;;;;;;5032167;28;20424;-76
2021/07/04 08:03:07;;;;;;;5.43;4.93;;;;;;;;;;5033526;28;20462;-80
2021/07/04 08:05:33;;;;;;;6.20;5.70;;;;;;;;;;5033052;28;20928;-77
2021/07/04 08:07:59;;;;;;;5.83;4.40;;;;;;;;;;5032870;28;20539;-75
2021/07/04 08:10:25;;;;;;;6.07;5.57;;;;;;;;;;5033274;28;20503;-78
2021/07/04 08:12:51;;;;;;;6.87;6.17;;;;;;;;;;5032015;28;20443;-76
2021/07/04 08:15:17;;;;;;;5.67;4.90;;;;;;;;;;5033048;28;20511;-78
2021/07/04 08:17:43;;;;;;;5.73;5.27;;;;;;;;;;5033127;28;20546;-79
2021/07/04 08:20:10;;;;;;;5.17;4.77;;;;;;;;;;5031557;28;20571;-78
2021/07/04 08:22:36;;;;;;;4.93;4.53;;;;;;;;;;5032739;28;20418;-76
2021/07/04 08:25:02;;;;;;;5.03;4.60;;;;;;;;;;5028190;28;20448;-77
2021/07/04 08:27:28;;;;;;;5.93;5.00;;;;;;;;;;5012194;28;20924;-76
2021/07/04 08:29:54;;;;;;;5.10;4.57;;;;;;;;;;5013089;28;20425;-77
2021/07/04 08:32:20;;;;;;;5.33;4.93;;;;;;;;;;5013179;28;20484;-76
2021/07/04 08:34:46;;;;;;;6.10;4.70;;;;;;;;;;5013025;28;20594;-76
2021/07/04 08:37:12;;;;;;;6.40;5.30;;;;;;;;;;5012942;28;20496;-76
2021/07/04 08:39:38;;;;;;;5.07;4.57;;;;;;;;;;5012697;28;20865;-75
2021/07/04 08:42:04;;;;;;;7.33;6.00;;;;;;;;;;5018994;28;20510;-76
2021/07/04 08:44:30;;;;;;;5.10;4.70;;;;;;;;;;5028836;28;20420;-76
2021/07/04 08:46:57;;;;;;;4.60;4.20;;;;;;;;;;5032268;28;20620;-76
2021/07/04 08:49:23;;;;;;;6.30;3.73;;;;;;;;;;5032430;28;20779;-76
2021/07/04 08:51:49;;;;;;;4.20;3.87;;;;;;;;;;5031960;28;20422;-76
2021/07/04 08:54:15;;;;;;;5.83;5.33;;;;;;;;;;5032127;28;20439;-76
2021/07/04 08:56:41;;;;;;;7.87;4.57;;;;;;;;;;5029963;28;20719;-76
2021/07/04 08:59:08;;;;;;;5.23;4.23;;;;;;;;;;5011217;28;20484;-77
2021/07/04 09:01:34;;;;;;;4.67;4.33;;;;;;;;;;5012985;28;20421;-77
2021/07/04 09:04:12;;;;;;;5.97;5.00;;;;;;;;;;5012416;28;20429;-76
2021/07/04 09:06:44;;;;;;;4.10;3.70;;;;;;;;;;5013029;28;20427;-78
2021/07/04 09:09:16;;;;;;;4.10;3.60;;;;;;;;;;5012054;28;20425;-75
2021/07/04 09:12:01;;;;;;;4.77;4.07;;;;;;;;;;5012942;28;20421;-76
2021/07/04 09:14:27;;;;;;;5.33;4.73;;;;;;;;;;5012640;28;20429;-77
2021/07/04 09:16:53;;;;;;;5.77;4.70;;;;;;;;;;5013422;28;20751;-76
2021/07/04 09:19:19;;;;;;;4.83;4.37;;;;;;;;;;5016573;28;20421;-76
2021/07/04 09:21:54;;;;;;;5.40;4.70;;;;;;;;;;5025216;28;20439;-77
2021/07/04 09:24:47;;;;;;;4.13;3.73;;;;;;;;;;5035725;28;20426;-75
2021/07/04 09:27:14;;;;;;;4.90;4.50;;;;;;;;;;5035190;28;20841;-74
2021/07/04 09:29:49;;;;;;;4.83;4.20;;;;;;;;;;5036319;28;20424;-75
2021/07/04 09:32:21;;;;;;;5.43;4.93;;;;;;;;;;5036333;28;20415;-77
2021/07/04 09:35:01;;;;;;;4.43;4.03;;;;;;;;;;5034999;28;20475;-76
2021/07/04 09:37:32;;;;;;;4.50;4.20;;;;;;;;;;5036907;28;20471;-74
2021/07/04 09:40:16;;;;;;;5.07;4.27;;;;;;;;;;5035688;28;20462;-76
2021/07/04 09:42:57;;;;;;;4.30;4.00;;;;;;;;;;5036404;28;20510;-76
2021/07/04 09:45:27;;;;;;;4.90;4.10;;;;;;;;;;5034620;28;20424;-77
2021/07/04 09:47:57;;;;;;;4.10;3.80;;;;;;;;;;5035982;28;20443;-76
2021/07/04 09:50:24;;;;;;;4.80;4.40;;;;;;;;;;5036270;28;20447;-77
2021/07/04 09:52:56;;;;;;;4.63;4.23;;;;;;;;;;5035817;28;20427;-76
2021/07/04 09:55:23;;;;;;;4.17;3.77;;;;;;;;;;5035355;28;20462;-76
2021/07/04 09:57:59;;;;;;;5.27;3.60;;;;;;;;;;5022308;28;20498;-75
2021/07/04 10:00:33;;;;;;;3.40;3.10;;;;;;;;;;5034639;28;20724;-76
2021/07/04 10:03:05;;;;;;;4.47;4.07;;;;;;;;;;5024938;28;20444;-75
2021/07/04 10:05:31;;;;;;;3.30;3.10;;;;;;;;;;5030223;28;20443;-75
2021/07/04 10:07:57;;;;;;;3.47;3.17;;;;;;;;;;5030981;28;20979;-76
2021/07/04 10:10:23;;;;;;;3.10;2.90;;;;;;;;;;5029701;28;20443;-72
2021/07/04 10:12:49;;;;;;;2.93;2.73;;;;;;;;;;5031499;28;20497;-74
2021/07/04 10:15:16;;;;;;;3.20;3.00;;;;;;;;;;5029460;28;20861;-74
2021/07/04 10:17:45;;;;;;;5.33;3.17;;;;;;;;;;5031617;28;20558;-75
2021/07/04 10:20:11;;;;;;;3.13;2.83;;;;;;;;;;5031432;28;20444;-77
2021/07/04 10:22:38;;;;;;;3.70;3.40;;;;;;;;;;5031504;28;20525;-76
2021/07/04 10:25:06;;;;;;;3.80;3.40;;;;;;;;;;5030649;28;20424;-74
2021/07/04 10:27:34;;;;;;;6.23;3.90;;;;;;;;;;5031217;28;20431;-76
2021/07/04 10:30:01;;;;;;;3.87;3.47;;;;;;;;;;5030232;28;20509;-75
2021/07/04 10:32:27;;;;;;;4.00;3.63;;;;;;;;;;5029358;28;20439;-75
2021/07/04 10:34:53;;;;;;;3.23;3.00;;;;;;;;;;5029078;28;21161;-75
2021/07/04 10:37:39;;;;;;;5.77;3.80;;;;;;;;;;5031128;28;20629;-75
2021/07/04 10:40:10;;;;;;;3.87;3.57;;;;;;;;;;5029637;28;20446;-77
2021/07/04 10:42:37;;;;;;;3.60;3.30;;;;;;;;;;5031009;28;20447;-76
2021/07/04 10:45:03;;;;;;;4.00;3.70;;;;;;;;;;5030952;28;20930;-76
2021/07/04 10:47:33;;;;;;;3.40;3.10;;;;;;;;;;5032121;28;20929;-76
2021/07/04 10:50:08;;;;;;;3.93;3.53;;;;;;;;;;5029953;28;20431;-75
2021/07/04 10:52:34;;;;;;;3.47;3.17;;;;;;;;;;5032141;28;20431;-81
2021/07/04 10:55:01;;;;;;;3.37;3.10;;;;;;;;;;5031630;28;20428;-79
2021/07/04 10:57:32;;;;;;;3.80;3.33;;;;;;;;;;5024375;28;20881;-80
2021/07/04 11:00:01;;;;;;;3.10;2.90;;;;;;;;;;5027814;28;20930;-78
2021/07/04 11:02:40;;;;;;;3.23;2.93;;;;;;;;;;5032255;28;20493;-79
2021/07/04 11:05:09;;;;;;;3.23;2.93;;;;;;;;;;5031576;28;20435;-75
2021/07/04 11:07:53;;;;;;;3.63;3.33;;;;;;;;;;5030254;28;20431;-75
2021/07/04 11:10:26;;;;;;;3.70;3.40;;;;;;;;;;5030959;28;20428;-79
2021/07/04 11:12:54;;;;;;;4.73;3.27;;;;;;;;;;5031896;28;20491;-79
2021/07/04 11:15:20;;;;;;;4.87;3.23;;;;;;;;;;5030821;28;20431;-78
2021/07/04 11:18:01;;;;;;;3.63;3.33;;;;;;;;;;5033619;28;20482;-79
2021/07/04 11:20:27;;;;;;;4.10;3.20;;;;;;;;;;5034675;28;20447;-77
2021/07/04 11:22:59;;;;;;;3.60;2.90;;;;;;;;;;5033413;28;20919;-78
2021/07/04 11:25:25;;;;;;;3.40;3.10;;;;;;;;;;5034475;28;20454;-76
2021/07/04 11:28:10;;;;;;;4.40;3.53;;;;;;;;;;5034794;28;20811;-78
2021/07/04 11:30:36;;;;;;;3.90;3.60;;;;;;;;;;5034703;28;20424;-77
2021/07/04 11:33:17;;;;;;;3.53;3.23;;;;;;;;;;5034436;28;20499;-78
2021/07/04 11:35:43;;;;;;;4.53;3.77;;;;;;;;;;5014974;28;20472;-78
2021/07/04 11:38:15;;;;;;;5.37;3.43;;;;;;;;;;5014408;28;20461;-78
2021/07/04 11:40:42;;;;;;;3.60;3.30;;;;;;;;;;5014018;28;20463;-78
2021/07/04 11:43:12;;;;;;;4.27;3.97;;;;;;;;;;5014673;28;20440;-79
2021/07/04 11:45:38;;;;;;;4.13;3.73;;;;;;;;;;5014589;28;20432;-78
2021/07/04 11:48:04;;;;;;;4.43;3.87;;;;;;;;;;5024518;28;20432;-77
2021/07/04 11:50:31;;;;;;;4.20;3.80;;;;;;;;;;5032808;28;20471;-78
2021/07/04 11:53:04;;;;;;;4.13;3.77;;;;;;;;;;5033996;28;20458;-79
2021/07/04 11:55:32;;;;;;;3.70;3.40;;;;;;;;;;5033856;28;20791;-76
2021/07/04 11:57:58;;;;;;;4.40;4.00;;;;;;;;;;5027526;28;21012;-74
2021/07/04 12:00:30;;;;;;;3.97;3.67;;;;;;;;;;5015176;28;20436;-77
2021/07/04 12:02:56;;;;;;;4.60;4.20;;;;;;;;;;5013654;28;20515;-75
2021/07/04 12:05:22;;;;;;;4.23;3.77;;;;;;;;;;5013196;28;20905;-78
2021/07/04 12:07:48;;;;;;;3.63;3.37;;;;;;;;;;5013255;28;20575;-73
2021/07/04 12:10:14;;;;;;;3.73;3.43;;;;;;;;;;5012288;28;20417;-78
2021/07/04 12:12:40;;;;;;;4.37;3.90;;;;;;;;;;5013359;28;20449;-74
2021/07/04 12:15:10;;;;;;;4.13;3.73;;;;;;;;;;5019677;28;20934;-74
2021/07/04 12:17:41;;;;;;;3.77;3.47;;;;;;;;;;5032826;28;20988;-75
2021/07/04 12:20:08;;;;;;;4.20;3.77;;;;;;;;;;5033031;28;20428;-75
2021/07/04 12:22:37;;;;;;;4.10;3.80;;;;;;;;;;5032717;28;20416;-76
2021/07/04 12:25:11;;;;;;;4.30;3.97;;;;;;;;;;5011840;28;20421;-75
2021/07/04 12:27:37;;;;;;;4.20;3.80;;;;;;;;;;5012623;28;20466;-75
2021/07/04 12:30:11;;;;;;;4.50;4.10;;;;;;;;;;5012754;28;20424;-74
2021/07/04 12:32:39;;;;;;;4.57;4.20;;;;;;;;;;5023889;28;20823;-74
2021/07/04 12:35:06;;;;;;;5.30;4.10;;;;;;;;;;5032064;28;20475;-75
2021/07/04 12:37:32;;;;;;;4.93;4.53;;;;;;;;;;5032060;28;20502;-74
2021/07/04 12:40:05;;;;;;;4.73;4.33;;;;;;;;;;5030821;28;20762;-74
2021/07/04 12:42:31;;;;;;;4.67;4.37;;;;;;;;;;5032174;28;20466;-75
2021/07/04 12:45:05;;;;;;;5.57;5.07;;;;;;;;;;5031912;28;20439;-73
2021/07/04 12:47:31;;;;;;;4.27;3.97;;;;;;;;;;5031229;28;20437;-76
2021/07/04 12:50:08;;;;;;;5.13;4.63;;;;;;;;;;5031709;28;20485;-73
2021/07/04 12:52:35;;;;;;;5.20;4.80;;;;;;;;;;5018311;28;20432;-74
2021/07/04 12:55:01;;;;;;;3.80;3.50;;;;;;;;;;5014920;28;20463;-74
2021/07/04 12:57:34;;;;;;;4.23;3.93;;;;;;;;;;5031741;28;20474;-73
2021/07/04 13:00:10;;;;;;;4.40;3.47;;;;;;;;;;5022564;28;20535;-74
2021/07/04 13:02:42;;;;;;;5.93;3.63;;;;;;;;;;5012042;28;20432;-73
2021/07/04 13:05:09;;;;;;;3.43;3.13;;;;;;;;;;5012209;28;20491;-75
2021/07/04 13:07:45;;;;;;;3.23;3.03;;;;;;;;;;5011960;28;20507;-76
2021/07/04 13:10:12;;;;;;;3.70;3.40;;;;;;;;;;5011649;28;20413;-75
2021/07/04 13:12:40;;;;;;;3.60;3.30;;;;;;;;;;5013612;28;20404;-77
2021/07/04 13:15:09;;;;;;;2.90;2.70;;;;;;;;;;5012221;28;20428;-75
2021/07/04 13:17:40;;;;;;;2.97;2.67;;;;;;;;;;5027034;28;20473;-75
2021/07/04 13:20:17;;;;;;;2.67;2.47;;;;;;;;;;5012292;28;20503;-75
2021/07/04 13:22:44;;;;;;;2.77;2.37;;;;;;;;;;5011746;28;20408;-75
2021/07/04 13:25:27;;;;;;;2.60;2.40;;;;;;;;;;5011182;28;20774;-76
2021/07/04 13:28:02;;;;;;;2.43;2.20;;;;;;;;;;5012214;28;21156;-74
2021/07/04 13:30:31;;;;;;;2.77;2.20;;;;;;;;;;5011890;28;20479;-74
2021/07/04 13:33:02;;;;;;;2.57;2.33;;;;;;;;;;5012088;28;20424;-74
2021/07/04 13:35:33;;;;;;;2.37;2.17;;;;;;;;;;5026803;28;20995;-74
2021/07/04 13:38:00;;;;;;;2.43;2.23;;;;;;;;;;5011383;28;20472;-75
2021/07/04 13:40:26;;;;;;;2.67;2.47;;;;;;;;;;5011760;28;20479;-74
2021/07/04 13:42:54;;;;;;;1.80;1.70;;;;;;;;;;5011819;28;20420;-75
2021/07/04 13:45:26;;;;;;;2.37;2.17;;;;;;;;;;5011570;28;20515;-75
2021/07/04 13:47:53;;;;;;;2.23;2.03;;;;;;;;;;5011645;28;20428;-74
2021/07/04 13:50:19;;;;;;;2.60;2.40;;;;;;;;;;5027613;28;21018;-76
2021/07/04 13:52:45;;;;;;;2.40;2.20;;;;;;;;;;5016360;28;20486;-74
2021/07/04 13:55:11;;;;;;;3.03;2.40;;;;;;;;;;5011425;28;20436;-74
2021/07/04 13:57:37;;;;;;;2.47;2.10;;;;;;;;;;5011265;28;20476;-75
2021/07/04 14:00:04;;;;;;;3.00;2.23;;;;;;;;;;5021925;28;20436;-75
2021/07/04 14:02:30;;;;;;;3.53;3.23;;;;;;;;;;5031171;28;20431;-75
2021/07/04 14:04:56;;;;;;;3.50;3.20;;;;;;;;;;5034797;28;20420;-75
2021/07/04 14:07:22;;;;;;;3.97;3.60;;;;;;;;;;5034151;28;20780;-76
2021/07/04 14:09:48;;;;;;;3.40;2.80;;;;;;;;;;5034335;28;20415;-77
2021/07/04 14:12:14;;;;;;;3.83;3.43;;;;;;;;;;5023331;28;20511;-75
2021/07/04 14:14:40;;;;;;;3.30;2.80;;;;;;;;;;5014730;28;20513;-75
2021/07/04 14:17:07;;;;;;;3.13;2.93;;;;;;;;;;5014589;28;20515;-76
2021/07/04 14:19:34;;;;;;;3.80;3.37;;;;;;;;;;5015355;28;20444;-74
2021/07/04 14:22:02;;;;;;;4.33;3.90;;;;;;;;;;5014783;28;20413;-75
2021/07/04 14:24:29;;;;;;;2.97;2.60;;;;;;;;;;5014297;28;20444;-76
2021/07/04 14:26:55;;;;;;;2.33;2.13;;;;;;;;;;5014396;28;20436;-76
2021/07/04 14:29:21;;;;;;;3.03;2.83;;;;;;;;;;5026444;28;20557;-78
2021/07/04 14:31:48;;;;;;;5.50;2.70;;;;;;;;;;5035057;28;20478;-80
2021/07/04 14:34:14;;;;;;;2.60;2.40;;;;;;;;;;5035176;28;20444;-76
2021/07/04 14:36:40;;;;;;;3.57;2.90;;;;;;;;;;5033951;28;20786;-73
2021/07/04 14:39:08;;;;;;;3.97;2.93;;;;;;;;;;5033761;28;20599;-75
2021/07/04 14:41:35;;;;;;;2.70;2.40;;;;;;;;;;5033525;28;20776;-77
2021/07/04 14:44:03;;;;;;;3.00;2.40;;;;;;;;;;5035212;28;20430;-76
2021/07/04 14:46:29;;;;;;;2.17;2.03;;;;;;;;;;5032668;28;20474;-76